Pilot No 5 — WDC3840 — position and weather

sailwx.info

Track history (hours):
 
Tides and Currents Weather Stations Pressure Air Temp Water Temp Dewpoint Dewpoint Depression Visibility Wind Speed Wind Dir Waves Ship Positions

Pilot No 5

Owner: P E P INC, FT LAUDERDALE, FL. More information available from US FCC via Universal Licensing System and Coast Guard Vessel Documentation Center.

Last reported at 2014-Dec-18 12:32 UTC. Time now 2014-Dec-18 17:25 UTC.
Position N 26°05' W 080°04'.

Length 6 m.

Type: Pilot. MMSI: 367015090.

Date/timePositionNaut miles runAvg speedWind from/ knotsBaromVisibWave heightAir tempDewpointWater temp
2014-Dec-18 12:32N 26°05' W 080°04'3 3.1
2014-Dec-18 11:27N 26°06' W 080°07'5 5.6
2014-Dec-18 10:32N 26°06' W 080°02'4 1.9
2014-Dec-18 08:24N 26°06' W 080°06'0 0.0
2014-Dec-18 06:24N 26°06' W 080°06'0 0.1
2014-Dec-18 05:27N 26°06' W 080°06'2 1.1
2014-Dec-18 03:32N 26°06' W 080°04'3 2.9
2014-Dec-18 02:33N 26°05' W 080°07'1 0.7
2014-Dec-18 00:34N 26°06' W 080°05'2 1.7
2014-Dec-17 23:33N 26°06' W 080°07'0 0.0
2014-Dec-17 22:33N 26°06' W 080°07'1 1.0
2014-Dec-17 21:25N 26°06' W 080°06'2 1.9
2014-Dec-17 20:33N 26°05' W 080°05'3 2.4
2014-Dec-17 19:25N 26°06' W 080°07'0 0.0
2014-Dec-17 18:07N 26°06' W 080°07'0 0.0
2014-Dec-17 17:32N 26°06' W 080°07'1 0.7
2014-Dec-17 16:06N 26°06' W 080°06'1 1.4
2014-Dec-17 15:21N 26°06' W 080°07'1 0.7
2014-Dec-17 14:06N 26°06' W 080°07'3 4.7
2014-Dec-17 13:33N 26°05' W 080°04'2 1.6
2014-Dec-17 12:10N 26°06' W 080°06'1 1.3
2014-Dec-17 11:30N 26°06' W 080°07'0 0.0
2014-Dec-17 02:33N 26°06' W 080°07'1 0.1
2014-Dec-16 18:33N 26°06' W 080°06'1 0.6
2014-Dec-16 16:24N 26°06' W 080°07'0 0.1
2014-Dec-16 13:28N 26°06' W 080°07'1 0.0
2014-Dec-15 20:18N 26°06' W 080°07'1 0.6
2014-Dec-15 19:17N 26°06' W 080°07'1 0.9
2014-Dec-15 18:33N 26°06' W 080°07'2 0.9
2014-Dec-15 16:34N 26°06' W 080°05'2 1.5
2014-Dec-15 15:32N 26°05' W 080°07'1 0.6
2014-Dec-15 14:33N 26°06' W 080°06'2 2.2
2014-Dec-15 13:33N 26°06' W 080°04'3 0.3
2014-Dec-15 04:04N 26°06' W 080°07'1 2.7
2014-Dec-15 03:31N 26°06' W 080°05'2 1.6
2014-Dec-15 02:32N 26°06' W 080°07'0 0.2
2014-Dec-15 01:31N 26°06' W 080°07'0 0.2
2014-Dec-14 23:33N 26°06' W 080°07'0 0.3
2014-Dec-14 22:28N 26°06' W 080°07'0 0.0
2014-Dec-14 21:33N 26°06' W 080°07'1 0.1
2014-Dec-14 11:34N 26°06' W 080°06'1 0.9
2014-Dec-14 10:31N 26°05' W 080°07'1 0.7
2014-Dec-14 09:29N 26°06' W 080°07'0 0.2
2014-Dec-14 08:33N 26°06' W 080°07'0 0.0
2014-Dec-14 07:33N 26°06' W 080°07'0 0.0
2014-Dec-14 06:34N 26°06' W 080°07'0 0.0
2014-Dec-13 22:25N 26°06' W 080°07'2 2.1
2014-Dec-13 21:31N 26°06' W 080°05'2 1.9
2014-Dec-13 20:33N 26°06' W 080°07'4 0.5
2014-Dec-13 12:33N 26°05' W 080°03'3 2.6
2014-Dec-13 11:33N 26°06' W 080°06'0 0.1
2014-Dec-13 10:33N 26°06' W 080°06'0 0.2
2014-Dec-13 09:33N 26°06' W 080°06'1 0.7
2014-Dec-13 08:28N 26°05' W 080°07'0 0.1
2014-Dec-13 07:31N 26°05' W 080°07'1 1.1
2014-Dec-13 06:33N 26°06' W 080°07'2 1.6
2014-Dec-13 05:33N 26°06' W 080°06'2 1.6
2014-Dec-13 04:31N 26°06' W 080°07'1 0.2
2014-Dec-12 23:33N 26°05' W 080°07'1 0.6
2014-Dec-12 22:30N 26°06' W 080°07'0 0.5
2014-Dec-12 21:33N 26°05' W 080°07'1 0.3
2014-Dec-12 18:33N 26°06' W 080°07'0 0.0
2014-Dec-12 17:31N 26°06' W 080°07'0 0.0
2014-Dec-12 16:33N 26°06' W 080°07'0 0.0
2014-Dec-12 15:33N 26°06' W 080°07'1 0.2
2014-Dec-12 12:31N 26°06' W 080°07'0 0.1
2014-Dec-12 11:25N 26°05' W 080°07'4 4.7
2014-Dec-12 10:34N 26°05' W 080°02'4 0.6
2014-Dec-12 03:14N 26°06' W 080°07'0 0.4
2014-Dec-12 02:32N 26°06' W 080°07'1 1.3
2014-Dec-12 01:33N 26°06' W 080°06'1 0.6
2014-Dec-11 23:31N 26°06' W 080°07'2 2.5
2014-Dec-11 22:33N 26°06' W 080°05'2 1.9
2014-Dec-11 21:29N 26°06' W 080°07'0 0.3
2014-Dec-11 20:33N 26°05' W 080°07'0 0.2
2014-Dec-11 18:33N 26°05' W 080°07'4 3.6
2014-Dec-11 17:33N 26°06' W 080°03'1 1.3
2014-Dec-11 16:33N 26°04' W 080°03'5 1.9
2014-Dec-11 14:09N 26°06' W 080°07'0 0.8
2014-Dec-11 13:32N 26°06' W 080°07'0 0.5
2014-Dec-11 12:33N 26°06' W 080°07'0 0.0
2014-Dec-11 11:33N 26°06' W 080°07'1 0.8
2014-Dec-11 10:33N 26°05' W 080°07'1 1.1
2014-Dec-11 09:33N 26°06' W 080°06'0 0.4
2014-Dec-11 08:33N 26°06' W 080°05'2 1.9
2014-Dec-11 07:33N 26°06' W 080°07'2 1.5
2014-Dec-11 06:33N 26°06' W 080°06'2 1.5
2014-Dec-11 05:33N 26°06' W 080°07'0 0.0
2014-Dec-11 01:33N 26°06' W 080°07'0 0.0
2014-Dec-11 00:33N 26°06' W 080°07'0 0.0
2014-Dec-10 23:32N 26°06' W 080°07'0 0.0
2014-Dec-10 22:32N 26°06' W 080°07'0 0.0
2014-Dec-10 21:31N 26°06' W 080°07'0 0.0
2014-Dec-10 20:31N 26°06' W 080°07'0 0.0
2014-Dec-10 19:33N 26°06' W 080°07'0 0.0
2014-Dec-10 18:31N 26°06' W 080°07'0 0.0
2014-Dec-10 16:18N 26°06' W 080°07'2 1.8
2014-Dec-10 15:15N 26°06' W 080°05'2 2.3
2014-Dec-10 14:32N 26°06' W 080°07'1 0.6
2014-Dec-10 13:33N 26°05' W 080°07'0 0.5
2014-Dec-10 12:33N 26°06' W 080°07'1 0.6
2014-Dec-10 11:33N 26°05' W 080°07'2 2.2
2014-Dec-10 10:33N 26°05' W 080°05'2 2.2
2014-Dec-10 09:33N 26°05' W 080°07'0 0.4
2014-Dec-10 08:32N 26°06' W 080°07'2 2.5
2014-Dec-10 07:33N 26°05' W 080°04'2 2.2
2014-Dec-10 06:26N 26°06' W 080°07'0 0.4
2014-Dec-10 05:32N 26°06' W 080°07'0 0.0
2014-Dec-10 04:33N 26°06' W 080°07'0 0.0
2014-Dec-10 03:33N 26°06' W 080°07'2 2.4
2014-Dec-10 02:33N 26°06' W 080°05'2 2.4
2014-Dec-10 01:33N 26°06' W 080°07'2 1.6
2014-Dec-10 00:29N 26°06' W 080°06'2 1.9
2014-Dec-09 23:33N 26°06' W 080°07'0 0.0
2014-Dec-09 22:33N 26°06' W 080°07'1 1.0
2014-Dec-09 21:33N 26°06' W 080°06'1 0.4
2014-Dec-09 19:12N 26°06' W 080°07'0 0.0
2014-Dec-09 11:31N 26°06' W 080°07'1 0.6
2014-Dec-09 10:33N 26°06' W 080°07'0 0.2
2014-Dec-09 09:33N 26°06' W 080°07'4 3.9
2014-Dec-09 08:33N 26°06' W 080°03'4 1.2
2014-Dec-09 05:33N 26°06' W 080°07'0 0.4
2014-Dec-09 04:33N 26°05' W 080°07'1 1.0
2014-Dec-09 03:33N 26°06' W 080°07'0 0.0
2014-Dec-09 02:33N 26°06' W 080°07'2 1.8
2014-Dec-09 01:33N 26°06' W 080°05'2 1.6
2014-Dec-09 00:33N 26°05' W 080°07'1 0.8
2014-Dec-08 23:33N 26°06' W 080°07'1 1.4
2014-Dec-08 22:33N 26°06' W 080°06'1 0.5
2014-Dec-08 21:33N 26°06' W 080°05'2 1.9
2014-Dec-08 20:33N 26°06' W 080°07'  
Track history (hours):
 
Tides and Currents Weather Stations Pressure Air Temp Water Temp Dewpoint Dewpoint Depression Visibility Wind Speed Wind Dir Waves Ship Positions

Pilot No 5

Owner: P E P INC, FT LAUDERDALE, FL. More information available from US FCC via Universal Licensing System and Coast Guard Vessel Documentation Center.

Last reported at 2014-Dec-18 12:32 UTC. Time now 2014-Dec-18 17:25 UTC.
Position N 26°05' W 080°04'.

Length 6 m.

Type: Pilot. MMSI: 367015090.

Date/timePositionNaut miles runAvg speedWind from/ knotsBaromVisibWave heightAir tempDewpointWater temp
2014-Dec-18 12:32N 26°05' W 080°04'3 3.1
2014-Dec-18 11:27N 26°06' W 080°07'5 5.6
2014-Dec-18 10:32N 26°06' W 080°02'4 1.9
2014-Dec-18 08:24N 26°06' W 080°06'0 0.0
2014-Dec-18 06:24N 26°06' W 080°06'0 0.1
2014-Dec-18 05:27N 26°06' W 080°06'2 1.1
2014-Dec-18 03:32N 26°06' W 080°04'3 2.9
2014-Dec-18 02:33N 26°05' W 080°07'1 0.7
2014-Dec-18 00:34N 26°06' W 080°05'2 1.7
2014-Dec-17 23:33N 26°06' W 080°07'0 0.0
2014-Dec-17 22:33N 26°06' W 080°07'1 1.0
2014-Dec-17 21:25N 26°06' W 080°06'2 1.9
2014-Dec-17 20:33N 26°05' W 080°05'3 2.4
2014-Dec-17 19:25N 26°06' W 080°07'0 0.0
2014-Dec-17 18:07N 26°06' W 080°07'0 0.0
2014-Dec-17 17:32N 26°06' W 080°07'1 0.7
2014-Dec-17 16:06N 26°06' W 080°06'1 1.4
2014-Dec-17 15:21N 26°06' W 080°07'1 0.7
2014-Dec-17 14:06N 26°06' W 080°07'3 4.7
2014-Dec-17 13:33N 26°05' W 080°04'2 1.6
2014-Dec-17 12:10N 26°06' W 080°06'1 1.3
2014-Dec-17 11:30N 26°06' W 080°07'0 0.0
2014-Dec-17 02:33N 26°06' W 080°07'1 0.1
2014-Dec-16 18:33N 26°06' W 080°06'1 0.6
2014-Dec-16 16:24N 26°06' W 080°07'0 0.1
2014-Dec-16 13:28N 26°06' W 080°07'1 0.0
2014-Dec-15 20:18N 26°06' W 080°07'1 0.6
2014-Dec-15 19:17N 26°06' W 080°07'1 0.9
2014-Dec-15 18:33N 26°06' W 080°07'2 0.9
2014-Dec-15 16:34N 26°06' W 080°05'2 1.5
2014-Dec-15 15:32N 26°05' W 080°07'1 0.6
2014-Dec-15 14:33N 26°06' W 080°06'2 2.2
2014-Dec-15 13:33N 26°06' W 080°04'3 0.3
2014-Dec-15 04:04N 26°06' W 080°07'1 2.7
2014-Dec-15 03:31N 26°06' W 080°05'2 1.6
2014-Dec-15 02:32N 26°06' W 080°07'0 0.2
2014-Dec-15 01:31N 26°06' W 080°07'0 0.2
2014-Dec-14 23:33N 26°06' W 080°07'0 0.3
2014-Dec-14 22:28N 26°06' W 080°07'0 0.0
2014-Dec-14 21:33N 26°06' W 080°07'1 0.1
2014-Dec-14 11:34N 26°06' W 080°06'1 0.9
2014-Dec-14 10:31N 26°05' W 080°07'1 0.7
2014-Dec-14 09:29N 26°06' W 080°07'0 0.2
2014-Dec-14 08:33N 26°06' W 080°07'0 0.0
2014-Dec-14 07:33N 26°06' W 080°07'0 0.0
2014-Dec-14 06:34N 26°06' W 080°07'0 0.0
2014-Dec-13 22:25N 26°06' W 080°07'2 2.1
2014-Dec-13 21:31N 26°06' W 080°05'2 1.9
2014-Dec-13 20:33N 26°06' W 080°07'4 0.5
2014-Dec-13 12:33N 26°05' W 080°03'3 2.6
2014-Dec-13 11:33N 26°06' W 080°06'0 0.1
2014-Dec-13 10:33N 26°06' W 080°06'0 0.2
2014-Dec-13 09:33N 26°06' W 080°06'1 0.7
2014-Dec-13 08:28N 26°05' W 080°07'0 0.1
2014-Dec-13 07:31N 26°05' W 080°07'1 1.1
2014-Dec-13 06:33N 26°06' W 080°07'2 1.6
2014-Dec-13 05:33N 26°06' W 080°06'2 1.6
2014-Dec-13 04:31N 26°06' W 080°07'1 0.2
2014-Dec-12 23:33N 26°05' W 080°07'1 0.6
2014-Dec-12 22:30N 26°06' W 080°07'0 0.5
2014-Dec-12 21:33N 26°05' W 080°07'1 0.3
2014-Dec-12 18:33N 26°06' W 080°07'0 0.0
2014-Dec-12 17:31N 26°06' W 080°07'0 0.0
2014-Dec-12 16:33N 26°06' W 080°07'0 0.0
2014-Dec-12 15:33N 26°06' W 080°07'1 0.2
2014-Dec-12 12:31N 26°06' W 080°07'0 0.1
2014-Dec-12 11:25N 26°05' W 080°07'4 4.7
2014-Dec-12 10:34N 26°05' W 080°02'4 0.6
2014-Dec-12 03:14N 26°06' W 080°07'0 0.4
2014-Dec-12 02:32N 26°06' W 080°07'1 1.3
2014-Dec-12 01:33N 26°06' W 080°06'1 0.6
2014-Dec-11 23:31N 26°06' W 080°07'2 2.5
2014-Dec-11 22:33N 26°06' W 080°05'2 1.9
2014-Dec-11 21:29N 26°06' W 080°07'0 0.3
2014-Dec-11 20:33N 26°05' W 080°07'0 0.2
2014-Dec-11 18:33N 26°05' W 080°07'4 3.6
2014-Dec-11 17:33N 26°06' W 080°03'1 1.3
2014-Dec-11 16:33N 26°04' W 080°03'5 1.9
2014-Dec-11 14:09N 26°06' W 080°07'0 0.8
2014-Dec-11 13:32N 26°06' W 080°07'0 0.5
2014-Dec-11 12:33N 26°06' W 080°07'0 0.0
2014-Dec-11 11:33N 26°06' W 080°07'1 0.8
2014-Dec-11 10:33N 26°05' W 080°07'1 1.1
2014-Dec-11 09:33N 26°06' W 080°06'0 0.4
2014-Dec-11 08:33N 26°06' W 080°05'2 1.9
2014-Dec-11 07:33N 26°06' W 080°07'2 1.5
2014-Dec-11 06:33N 26°06' W 080°06'2 1.5
2014-Dec-11 05:33N 26°06' W 080°07'0 0.0
2014-Dec-11 01:33N 26°06' W 080°07'0 0.0
2014-Dec-11 00:33N 26°06' W 080°07'0 0.0
2014-Dec-10 23:32N 26°06' W 080°07'0 0.0
2014-Dec-10 22:32N 26°06' W 080°07'0 0.0
2014-Dec-10 21:31N 26°06' W 080°07'0 0.0
2014-Dec-10 20:31N 26°06' W 080°07'0 0.0
2014-Dec-10 19:33N 26°06' W 080°07'0 0.0
2014-Dec-10 18:31N 26°06' W 080°07'0 0.0
2014-Dec-10 16:18N 26°06' W 080°07'2 1.8
2014-Dec-10 15:15N 26°06' W 080°05'2 2.3
2014-Dec-10 14:32N 26°06' W 080°07'1 0.6
2014-Dec-10 13:33N 26°05' W 080°07'0 0.5
2014-Dec-10 12:33N 26°06' W 080°07'1 0.6
2014-Dec-10 11:33N 26°05' W 080°07'2 2.2
2014-Dec-10 10:33N 26°05' W 080°05'2 2.2
2014-Dec-10 09:33N 26°05' W 080°07'0 0.4
2014-Dec-10 08:32N 26°06' W 080°07'2 2.5
2014-Dec-10 07:33N 26°05' W 080°04'2 2.2
2014-Dec-10 06:26N 26°06' W 080°07'0 0.4
2014-Dec-10 05:32N 26°06' W 080°07'0 0.0
2014-Dec-10 04:33N 26°06' W 080°07'0 0.0
2014-Dec-10 03:33N 26°06' W 080°07'2 2.4
2014-Dec-10 02:33N 26°06' W 080°05'2 2.4
2014-Dec-10 01:33N 26°06' W 080°07'2 1.6
2014-Dec-10 00:29N 26°06' W 080°06'2 1.9
2014-Dec-09 23:33N 26°06' W 080°07'0 0.0
2014-Dec-09 22:33N 26°06' W 080°07'1 1.0
2014-Dec-09 21:33N 26°06' W 080°06'1 0.4
2014-Dec-09 19:12N 26°06' W 080°07'0 0.0
2014-Dec-09 11:31N 26°06' W 080°07'1 0.6
2014-Dec-09 10:33N 26°06' W 080°07'0 0.2
2014-Dec-09 09:33N 26°06' W 080°07'4 3.9
2014-Dec-09 08:33N 26°06' W 080°03'4 1.2
2014-Dec-09 05:33N 26°06' W 080°07'0 0.4
2014-Dec-09 04:33N 26°05' W 080°07'1 1.0
2014-Dec-09 03:33N 26°06' W 080°07'0 0.0
2014-Dec-09 02:33N 26°06' W 080°07'2 1.8
2014-Dec-09 01:33N 26°06' W 080°05'2 1.6
2014-Dec-09 00:33N 26°05' W 080°07'1 0.8
2014-Dec-08 23:33N 26°06' W 080°07'1 1.4
2014-Dec-08 22:33N 26°06' W 080°06'1 0.5
2014-Dec-08 21:33N 26°06' W 080°05'2 1.9
2014-Dec-08 20:33N 26°06' W 080°07'  

Dump ship's entire track history